Time;durP1;ratioP1;P1;durP2;ratioP2;P2;SDS_P1;SDS_P2;PMS_P1;PMS_P2;Temp;Humidity;BMP_temperature;BMP_pressure;BME280_temperature;BME280_humidity;BME280_pressure;Samples;Min_cycle;Max_cycle;Signal;HPM_P1;HPM_P2
2023/04/04 00:00:18;;;;;;;2.78;0.50;;;3.20;67.90;;;;;;4976125;28;94568;-70
2023/04/04 00:02:45;;;;;;;4.05;0.50;;;3.10;68.40;;;;;;4976669;28;92600;-70
2023/04/04 00:05:10;;;;;;;2.58;0.52;;;3.00;67.40;;;;;;4975581;28;92648;-70
2023/04/04 00:07:36;;;;;;;3.35;0.40;;;3.00;67.60;;;;;;4995698;28;92461;-70
2023/04/04 00:10:02;;;;;;;2.15;0.40;;;3.10;67.20;;;;;;4983363;28;92447;-70
2023/04/04 00:12:27;;;;;;;4.18;0.55;;;3.10;69.00;;;;;;4975212;28;93067;-70
2023/04/04 00:14:53;;;;;;;4.20;0.50;;;3.00;68.10;;;;;;4983038;28;93129;-70
2023/04/04 00:17:19;;;;;;;2.22;0.45;;;3.00;68.30;;;;;;4961562;28;92570;-70
2023/04/04 00:19:45;;;;;;;5.45;0.43;;;3.00;68.60;;;;;;4968732;28;92496;-70
2023/04/04 00:22:12;;;;;;;3.22;0.50;;;2.90;69.00;;;;;;4966746;28;92490;-70
2023/04/04 00:24:38;;;;;;;3.33;0.52;;;2.80;69.20;;;;;;4976171;28;95089;-70
2023/04/04 00:27:04;;;;;;;3.28;0.63;;;2.80;69.50;;;;;;4966494;28;93162;-70
2023/04/04 00:29:30;;;;;;;3.13;0.60;;;2.80;69.10;;;;;;4979179;28;92430;-70
2023/04/04 00:31:56;;;;;;;2.13;0.68;;;2.70;69.10;;;;;;4975848;28;92495;-70
2023/04/04 00:34:22;;;;;;;2.47;0.60;;;2.70;69.00;;;;;;4964830;28;93198;-70
2023/04/04 00:36:48;;;;;;;4.20;0.60;;;2.70;69.20;;;;;;4986787;28;92947;-70
2023/04/04 00:39:14;;;;;;;3.53;0.80;;;2.60;69.10;;;;;;4981638;28;92381;-70
2023/04/04 00:41:39;;;;;;;3.75;0.57;;;2.60;68.90;;;;;;4976482;28;92382;-70
2023/04/04 00:44:05;;;;;;;3.13;0.43;;;2.60;69.10;;;;;;4980776;28;93704;-70
2023/04/04 00:46:32;;;;;;;1.58;0.50;;;2.50;70.20;;;;;;4974814;28;92871;-70
2023/04/04 00:48:58;;;;;;;2.15;0.55;;;2.60;69.40;;;;;;4973290;28;94918;-69
2023/04/04 00:51:24;;;;;;;2.67;0.60;;;2.60;68.60;;;;;;4968581;28;92655;-70
2023/04/04 00:53:51;;;;;;;3.78;0.75;;;2.60;68.80;;;;;;4975248;28;93107;-70
2023/04/04 00:56:18;;;;;;;2.30;0.80;;;2.60;69.20;;;;;;4976970;28;93230;-72
2023/04/04 00:58:44;;;;;;;3.40;0.90;;;2.50;69.40;;;;;;4977185;28;92313;-70
2023/04/04 01:01:10;;;;;;;2.17;0.50;;;2.50;70.10;;;;;;4985423;28;94403;-71
2023/04/04 01:03:36;;;;;;;2.95;0.70;;;2.40;70.70;;;;;;4994258;28;93242;-71
2023/04/04 01:06:02;;;;;;;3.25;0.52;;;2.40;70.50;;;;;;4991127;28;93163;-71
2023/04/04 01:08:29;;;;;;;3.28;0.63;;;2.40;70.30;;;;;;4974044;28;92474;-71
2023/04/04 01:10:55;;;;;;;5.90;0.98;;;2.40;70.60;;;;;;4977951;28;92394;-70
2023/04/04 01:13:21;;;;;;;3.63;0.70;;;2.40;71.30;;;;;;4968007;28;93575;-70
2023/04/04 01:15:47;;;;;;;2.33;0.65;;;2.40;71.20;;;;;;4994834;28;94580;-70
2023/04/04 01:18:17;;;;;;;2.88;0.57;;;2.30;70.60;;;;;;4984674;28;92317;-71
2023/04/04 01:21:01;;;;;;;3.97;0.60;;;2.30;70.60;;;;;;4978353;28;92638;-70
2023/04/04 01:23:54;;;;;;;3.90;0.70;;;2.30;70.90;;;;;;4969051;28;92830;-70
2023/04/04 01:26:20;;;;;;;3.53;0.47;;;2.30;70.30;;;;;;4977055;28;94817;-71
2023/04/04 01:28:46;;;;;;;2.63;0.63;;;2.30;70.90;;;;;;4973489;28;94028;-71
2023/04/04 01:31:14;;;;;;;3.80;0.70;;;2.30;71.40;;;;;;4976812;28;92175;-69
2023/04/04 01:33:45;;;;;;;3.35;0.60;;;2.20;71.40;;;;;;4973659;28;93133;-70
2023/04/04 01:36:20;;;;;;;3.45;0.68;;;2.20;71.50;;;;;;4985835;28;93310;-69
2023/04/04 01:38:55;;;;;;;2.42;0.70;;;2.20;70.90;;;;;;4979750;28;94398;-69
2023/04/04 01:41:23;;;;;;;3.50;0.60;;;2.20;71.10;;;;;;4978605;28;92369;-69
2023/04/04 01:43:50;;;;;;;2.55;0.63;;;2.10;71.20;;;;;;4990429;28;92514;-70
2023/04/04 01:46:16;;;;;;;2.85;0.82;;;2.10;71.50;;;;;;4975016;28;94262;-71
2023/04/04 01:48:43;;;;;;;6.30;1.42;;;2.10;71.40;;;;;;4994113;28;92316;-70
2023/04/04 01:51:09;;;;;;;5.03;0.90;;;2.10;72.00;;;;;;4995264;28;92560;-71
2023/04/04 01:53:36;;;;;;;3.35;0.88;;;2.00;71.70;;;;;;4993705;28;92624;-69
2023/04/04 01:56:02;;;;;;;3.85;0.93;;;2.00;71.50;;;;;;4995250;28;92945;-69
2023/04/04 01:58:28;;;;;;;3.45;0.80;;;2.00;71.30;;;;;;4981834;28;92145;-69
2023/04/04 02:00:54;;;;;;;3.70;0.88;;;1.90;71.60;;;;;;4997201;28;92003;-69
2023/04/04 02:03:19;;;;;;;4.60;0.77;;;1.90;71.10;;;;;;4987675;28;94171;-69
2023/04/04 02:05:45;;;;;;;2.67;0.82;;;1.90;71.50;;;;;;4987420;28;93248;-71
2023/04/04 02:08:12;;;;;;;2.55;0.90;;;1.90;71.40;;;;;;4993822;28;92436;-70
2023/04/04 02:10:37;;;;;;;2.80;0.77;;;1.80;71.60;;;;;;4985813;28;92042;-69
2023/04/04 02:13:03;;;;;;;3.58;0.60;;;1.80;71.20;;;;;;4977436;28;92637;-69
2023/04/04 02:15:29;;;;;;;2.42;0.63;;;1.80;70.90;;;;;;4959860;28;93031;-70
2023/04/04 02:17:55;;;;;;;2.42;0.65;;;1.80;71.50;;;;;;4984353;28;92448;-70
2023/04/04 02:20:21;;;;;;;3.17;0.88;;;1.70;71.50;;;;;;4985480;28;91699;-70
2023/04/04 02:22:54;;;;;;;4.63;0.93;;;1.60;71.90;;;;;;4967944;28;92897;-71
2023/04/04 02:25:22;;;;;;;3.05;0.93;;;1.50;71.90;;;;;;4987484;28;92944;-73
2023/04/04 02:27:48;;;;;;;3.38;0.85;;;1.50;72.20;;;;;;4981579;28;93621;-72
2023/04/04 02:30:14;;;;;;;6.25;0.70;;;1.50;72.50;;;;;;4997946;28;92494;-72
2023/04/04 02:32:41;;;;;;;3.47;0.85;;;1.50;72.40;;;;;;4977266;28;93564;-71
2023/04/04 02:35:07;;;;;;;3.50;0.85;;;1.50;72.90;;;;;;4982157;28;92940;-71
2023/04/04 02:37:33;;;;;;;3.17;0.75;;;1.40;73.10;;;;;;4988289;28;92422;-71
2023/04/04 02:39:58;;;;;;;3.17;0.85;;;1.40;73.00;;;;;;4968632;28;92680;-71
2023/04/04 02:42:24;;;;;;;5.63;0.80;;;1.40;73.00;;;;;;4965450;28;92871;-71
2023/04/04 02:44:50;;;;;;;2.85;0.80;;;1.40;72.90;;;;;;4976029;28;92185;-71
2023/04/04 02:47:16;;;;;;;3.88;0.90;;;1.40;72.80;;;;;;4982756;28;92491;-71
2023/04/04 02:49:42;;;;;;;3.90;1.00;;;1.40;72.90;;;;;;4969554;28;92152;-71
2023/04/04 02:52:07;;;;;;;5.07;0.75;;;1.40;73.20;;;;;;4972191;28;94352;-71
2023/04/04 02:54:33;;;;;;;4.32;1.20;;;1.40;72.80;;;;;;4974333;28;93857;-71
2023/04/04 02:56:59;;;;;;;3.47;0.90;;;1.40;73.20;;;;;;4970553;28;92218;-71
2023/04/04 02:59:24;;;;;;;5.40;0.80;;;1.40;73.10;;;;;;4997873;28;92620;-71
2023/04/04 03:01:50;;;;;;;5.38;1.02;;;1.30;73.20;;;;;;4974056;28;93397;-72
2023/04/04 03:04:18;;;;;;;3.10;1.08;;;1.30;73.30;;;;;;4983804;28;93653;-71
2023/04/04 03:06:44;;;;;;;4.78;0.80;;;1.30;73.30;;;;;;4972294;28;92481;-70
2023/04/04 03:09:10;;;;;;;3.53;0.65;;;1.30;73.50;;;;;;4976522;28;92713;-70
2023/04/04 03:11:35;;;;;;;3.53;1.00;;;1.20;73.40;;;;;;4976603;28;92388;-71
2023/04/04 03:14:01;;;;;;;4.70;0.95;;;1.20;73.90;;;;;;4976058;28;92650;-71
2023/04/04 03:16:28;;;;;;;2.58;0.88;;;1.10;74.20;;;;;;4972581;28;93528;-71
2023/04/04 03:18:54;;;;;;;3.75;1.08;;;1.00;74.50;;;;;;4992410;28;92643;-71
2023/04/04 03:21:21;;;;;;;5.00;0.75;;;1.00;74.40;;;;;;4976985;28;93795;-71
2023/04/04 03:23:46;;;;;;;3.40;0.65;;;1.00;75.00;;;;;;4970728;28;92287;-71
2023/04/04 03:26:12;;;;;;;2.95;0.73;;;0.90;74.90;;;;;;4973225;28;92403;-71
2023/04/04 03:28:38;;;;;;;3.92;0.95;;;0.90;75.10;;;;;;4973779;28;92241;-70
2023/04/04 03:31:05;;;;;;;3.60;1.00;;;0.90;75.60;;;;;;4969277;28;93914;-70
2023/04/04 03:33:32;;;;;;;2.72;0.93;;;0.80;75.50;;;;;;4966574;28;93086;-70
2023/04/04 03:35:58;;;;;;;5.05;1.42;;;0.80;75.70;;;;;;4977872;28;93935;-71
2023/04/04 03:38:24;;;;;;;3.70;0.75;;;0.80;75.90;;;;;;4968669;28;93371;-70
2023/04/04 03:41:00;;;;;;;2.60;1.00;;;0.70;75.90;;;;;;4970495;28;94603;-71
2023/04/04 03:43:27;;;;;;;2.90;1.00;;;0.70;76.00;;;;;;4968865;28;93749;-70
2023/04/04 03:45:54;;;;;;;3.95;1.00;;;0.70;76.80;;;;;;4978847;28;93461;-70
2023/04/04 03:48:19;;;;;;;2.80;0.82;;;0.70;77.70;;;;;;4976684;28;92111;-71
2023/04/04 03:50:45;;;;;;;4.32;1.30;;;0.60;78.00;;;;;;4981921;28;94237;-71
2023/04/04 03:53:13;;;;;;;3.28;0.82;;;0.70;76.70;;;;;;4994571;28;93042;-71
2023/04/04 03:55:42;;;;;;;4.50;0.82;;;0.70;76.20;;;;;;4983301;28;94383;-71
2023/04/04 03:58:08;;;;;;;3.33;1.00;;;0.70;76.10;;;;;;4970665;28;91736;-70
2023/04/04 04:00:33;;;;;;;3.47;0.75;;;0.70;75.90;;;;;;4973536;28;92943;-71
2023/04/04 04:02:59;;;;;;;4.32;1.17;;;0.70;76.00;;;;;;4973994;28;93660;-71
2023/04/04 04:05:25;;;;;;;5.47;1.02;;;0.60;75.60;;;;;;4962973;28;93862;-70
2023/04/04 04:07:51;;;;;;;3.38;0.93;;;0.60;76.60;;;;;;4996414;28;92590;-70
2023/04/04 04:10:17;;;;;;;4.57;1.20;;;0.60;76.80;;;;;;4983169;28;93207;-71
2023/04/04 04:12:43;;;;;;;5.05;1.00;;;0.60;76.40;;;;;;4988482;28;92497;-70
2023/04/04 04:15:09;;;;;;;4.00;0.85;;;0.60;74.40;;;;;;4974830;28;92660;-70
2023/04/04 04:17:41;;;;;;;2.72;0.95;;;0.70;73.60;;;;;;4991132;28;92551;-70
2023/04/04 04:20:10;;;;;;;3.30;1.13;;;0.70;73.30;;;;;;4978956;28;93471;-71
2023/04/04 04:22:36;;;;;;;3.95;1.02;;;0.70;73.90;;;;;;4967336;28;93321;-71
2023/04/04 04:25:02;;;;;;;3.78;0.93;;;0.70;73.90;;;;;;4961672;28;94120;-71
2023/04/04 04:27:29;;;;;;;3.63;1.20;;;0.70;74.10;;;;;;4970688;28;91986;-70
2023/04/04 04:29:55;;;;;;;5.97;1.20;;;0.60;74.40;;;;;;4983004;28;94214;-70
2023/04/04 04:32:21;;;;;;;3.58;1.02;;;0.60;75.10;;;;;;4969725;28;94253;-71
2023/04/04 04:34:46;;;;;;;4.40;1.10;;;0.60;75.60;;;;;;4977330;28;92515;-71
2023/04/04 04:37:12;;;;;;;4.57;1.45;;;0.60;76.00;;;;;;4961003;28;92508;-70
2023/04/04 04:39:38;;;;;;;6.40;1.52;;;0.50;76.40;;;;;;4981539;28;92789;-70
2023/04/04 04:42:04;;;;;;;6.82;1.35;;;0.50;76.60;;;;;;4975951;28;92967;-70
2023/04/04 04:44:29;;;;;;;7.03;1.42;;;0.50;76.70;;;;;;4967576;28;92655;-70
2023/04/04 04:46:58;;;;;;;4.68;1.40;;;0.40;77.10;;;;;;4966429;28;91392;-70
2023/04/04 04:49:24;;;;;;;4.50;1.50;;;0.40;78.20;;;;;;4971645;28;92753;-70
2023/04/04 04:51:50;;;;;;;5.18;1.58;;;0.40;78.60;;;;;;4971278;28;92782;-70
2023/04/04 04:54:15;;;;;;;4.03;1.45;;;0.40;78.70;;;;;;4971942;28;93621;-70
2023/04/04 04:56:41;;;;;;;4.45;1.20;;;0.40;79.10;;;;;;4978694;28;93246;-70
2023/04/04 04:59:07;;;;;;;4.20;1.50;;;0.40;79.50;;;;;;4958264;28;94628;-70
2023/04/04 05:01:33;;;;;;;4.82;1.08;;;0.30;79.60;;;;;;4977751;28;93060;-70
2023/04/04 05:03:59;;;;;;;3.70;1.40;;;0.30;79.60;;;;;;4974107;28;93074;-71
2023/04/04 05:06:24;;;;;;;7.78;3.10;;;0.40;79.60;;;;;;4968589;28;92150;-70
2023/04/04 05:08:50;;;;;;;5.40;1.90;;;0.40;79.20;;;;;;4966282;28;93170;-70
2023/04/04 05:11:16;;;;;;;5.97;1.92;;;0.40;79.00;;;;;;4958827;28;92165;-70
2023/04/04 05:13:41;;;;;;;5.03;1.50;;;0.50;78.70;;;;;;4965444;28;93611;-71
2023/04/04 05:16:07;;;;;;;6.40;1.63;;;0.60;79.10;;;;;;4962538;28;92932;-70
2023/04/04 05:18:33;;;;;;;4.68;1.63;;;1.00;79.00;;;;;;4964470;28;94178;-71
2023/04/04 05:20:58;;;;;;;5.70;1.60;;;1.50;76.70;;;;;;4977965;28;93831;-71
2023/04/04 05:23:25;;;;;;;7.30;2.03;;;2.10;75.00;;;;;;4961146;28;92722;-71
2023/04/04 05:25:52;;;;;;;8.57;1.95;;;3.00;72.60;;;;;;4960885;28;93507;-70
2023/04/04 05:28:18;;;;;;;6.00;1.88;;;4.00;69.10;;;;;;4972893;28;93251;-71
2023/04/04 05:30:44;;;;;;;6.82;1.80;;;4.80;66.00;;;;;;4982531;28;93146;-71
2023/04/04 05:33:10;;;;;;;8.43;2.10;;;5.80;63.80;;;;;;4979615;28;93195;-71
2023/04/04 05:35:36;;;;;;;7.78;2.15;;;6.80;61.00;;;;;;4976292;28;91628;-69
2023/04/04 05:38:02;;;;;;;6.43;1.77;;;7.60;58.90;;;;;;4984923;28;93778;-72
2023/04/04 05:40:27;;;;;;;4.80;1.30;;;8.00;57.00;;;;;;4975940;28;92742;-70
2023/04/04 05:42:57;;;;;;;4.13;1.45;;;8.60;55.50;;;;;;4974401;28;93563;-69
2023/04/04 05:45:24;;;;;;;5.28;1.27;;;9.40;54.40;;;;;;4979148;28;92393;-69
2023/04/04 05:47:49;;;;;;;4.45;1.55;;;10.00;52.60;;;;;;4974564;28;93223;-71
2023/04/04 05:50:15;;;;;;;3.78;1.40;;;10.80;51.10;;;;;;4973646;28;92792;-71
2023/04/04 05:52:41;;;;;;;4.82;1.65;;;11.00;50.00;;;;;;4969910;28;92185;-70
2023/04/04 05:55:07;;;;;;;7.25;1.60;;;10.90;49.90;;;;;;4977793;28;92175;-71
2023/04/04 05:57:33;;;;;;;4.65;1.40;;;11.70;48.30;;;;;;4972195;28;93080;-71
2023/04/04 05:59:59;;;;;;;4.28;1.65;;;11.60;47.00;;;;;;4975191;28;91904;-70
2023/04/04 06:02:25;;;;;;;5.90;1.52;;;11.80;48.00;;;;;;4975226;28;92779;-70
2023/04/04 06:04:50;;;;;;;4.60;1.58;;;12.40;46.60;;;;;;4982251;28;92487;-72
2023/04/04 06:07:17;;;;;;;5.13;1.67;;;13.00;44.10;;;;;;4982428;28;93980;-71
2023/04/04 06:09:43;;;;;;;7.70;1.65;;;13.30;44.50;;;;;;4975365;28;92565;-72
2023/04/04 06:12:09;;;;;;;3.88;1.70;;;14.10;43.80;;;;;;4971664;28;92479;-71
2023/04/04 06:14:35;;;;;;;4.10;1.80;;;13.80;43.40;;;;;;4961789;28;93888;-71
2023/04/04 06:17:02;;;;;;;6.13;2.03;;;14.70;42.70;;;;;;4977289;28;93624;-71
2023/04/04 06:19:27;;;;;;;5.32;1.88;;;15.80;40.90;;;;;;4957242;28;92521;-70
2023/04/04 06:21:53;;;;;;;4.07;1.67;;;15.80;40.70;;;;;;4970104;28;92128;-71
2023/04/04 06:24:19;;;;;;;4.00;1.70;;;16.90;39.60;;;;;;4972576;28;91706;-71
2023/04/04 06:26:45;;;;;;;2.97;1.63;;;16.80;38.40;;;;;;4975353;28;94407;-70
2023/04/04 06:29:11;;;;;;;4.53;2.00;;;17.10;39.10;;;;;;4969458;28;93578;-71
2023/04/04 06:31:36;;;;;;;4.07;1.95;;;18.20;37.00;;;;;;4972946;28;93987;-70
2023/04/04 06:34:02;;;;;;;3.90;1.83;;;18.60;36.30;;;;;;4981740;28;92523;-71
2023/04/04 06:36:28;;;;;;;3.65;1.75;;;18.80;36.60;;;;;;4980766;28;93194;-71
2023/04/04 06:38:54;;;;;;;5.60;1.67;;;19.00;35.50;;;;;;4989530;28;94336;-71
2023/04/04 06:41:19;;;;;;;4.72;2.30;;;20.10;35.10;;;;;;4992957;28;92189;-72
2023/04/04 06:43:48;;;;;;;3.70;1.85;;;21.00;33.60;;;;;;4986323;28;92369;-72
2023/04/04 06:46:13;;;;;;;4.22;2.13;;;21.50;33.30;;;;;;4988556;28;93647;-71
2023/04/04 06:48:39;;;;;;;5.22;2.38;;;21.40;32.70;;;;;;4967842;28;92363;-68
2023/04/04 06:51:06;;;;;;;3.78;1.92;;;22.30;33.10;;;;;;4965632;28;92764;-71
2023/04/04 06:53:33;;;;;;;5.18;2.50;;;22.80;31.20;;;;;;4966447;28;92594;-72
2023/04/04 06:55:59;;;;;;;4.05;2.45;;;22.90;31.40;;;;;;4981232;28;94115;-71
2023/04/04 06:58:25;;;;;;;4.20;1.88;;;22.60;31.20;;;;;;4977271;28;93243;-72
2023/04/04 07:00:50;;;;;;;5.15;2.17;;;23.20;30.50;;;;;;4968605;28;92363;-71
2023/04/04 07:03:16;;;;;;;3.70;1.80;;;23.70;30.50;;;;;;4972561;28;92383;-71
2023/04/04 07:05:42;;;;;;;4.63;2.17;;;23.80;29.50;;;;;;4976642;28;93135;-72
2023/04/04 07:08:08;;;;;;;5.82;2.17;;;24.20;29.40;;;;;;4977164;28;92135;-71
2023/04/04 07:10:34;;;;;;;3.60;2.25;;;24.10;29.60;;;;;;4986588;28;92503;-72
2023/04/04 07:13:00;;;;;;;3.72;2.33;;;24.30;29.70;;;;;;4982490;28;91750;-72
2023/04/04 07:15:26;;;;;;;4.05;2.28;;;24.30;28.80;;;;;;4973634;28;92790;-72
2023/04/04 07:17:53;;;;;;;3.92;2.28;;;25.20;29.20;;;;;;4973637;28;94253;-72
2023/04/04 07:20:18;;;;;;;4.55;2.20;;;25.40;28.20;;;;;;4973549;28;93460;-72
2023/04/04 07:22:45;;;;;;;3.13;1.90;;;25.60;28.10;;;;;;4974667;28;92563;-72
2023/04/04 07:25:14;;;;;;;4.75;2.28;;;25.90;28.50;;;;;;4980647;28;93131;-72
2023/04/04 07:27:39;;;;;;;3.80;2.22;;;26.30;27.70;;;;;;4987099;28;92902;-72
2023/04/04 07:30:07;;;;;;;4.47;2.40;;;27.40;27.80;;;;;;4985104;28;92598;-71
2023/04/04 07:32:32;;;;;;;3.65;2.13;;;27.30;27.00;;;;;;4975169;28;92343;-72
2023/04/04 07:34:58;;;;;;;3.75;2.33;;;27.30;27.10;;;;;;4970744;28;93184;-72
2023/04/04 07:37:25;;;;;;;4.32;2.45;;;27.10;27.70;;;;;;4975596;28;92807;-72
2023/04/04 07:39:51;;;;;;;3.42;1.90;;;26.90;26.80;;;;;;4971685;28;92285;-72
2023/04/04 07:42:21;;;;;;;3.92;1.98;;;27.30;27.10;;;;;;4994535;28;92144;-72
2023/04/04 07:44:49;;;;;;;5.05;2.92;;;27.40;27.20;;;;;;4987972;28;94055;-72
2023/04/04 07:47:15;;;;;;;4.45;2.67;;;28.30;27.10;;;;;;4964163;28;93450;-71
2023/04/04 07:49:41;;;;;;;3.55;2.05;;;28.60;26.60;;;;;;4973703;28;92488;-71
2023/04/04 07:52:07;;;;;;;4.78;2.53;;;28.90;26.40;;;;;;4974823;28;92342;-71
2023/04/04 07:54:34;;;;;;;4.75;2.38;;;28.30;26.50;;;;;;4961976;28;94193;-71
2023/04/04 07:57:00;;;;;;;3.50;2.72;;;28.50;26.90;;;;;;4975519;28;92641;-71
2023/04/04 07:59:26;;;;;;;5.15;3.65;;;29.00;26.00;;;;;;4976199;28;92390;-72
2023/04/04 08:01:51;;;;;;;4.18;3.10;;;29.20;26.20;;;;;;4969280;28;91717;-71
2023/04/04 08:04:17;;;;;;;7.55;4.88;;;28.50;26.30;;;;;;4972038;28;93652;-71
2023/04/04 08:06:43;;;;;;;3.75;2.15;;;25.70;26.20;;;;;;4976720;28;92789;-71
2023/04/04 08:09:08;;;;;;;4.95;1.83;;;24.10;27.60;;;;;;4975790;28;93643;-71
2023/04/04 08:11:35;;;;;;;3.92;1.73;;;23.00;28.30;;;;;;4983519;28;92561;-71
2023/04/04 08:14:01;;;;;;;3.30;2.13;;;24.80;27.80;;;;;;4973898;28;93578;-71
2023/04/04 08:16:27;;;;;;;3.42;2.47;;;26.20;27.50;;;;;;4972740;28;93096;-71
2023/04/04 08:18:53;;;;;;;3.25;2.47;;;28.00;26.20;;;;;;4968033;28;92665;-71
2023/04/04 08:21:19;;;;;;;4.93;1.75;;;28.30;25.70;;;;;;4975961;28;92603;-72
2023/04/04 08:23:44;;;;;;;3.08;2.53;;;28.80;25.20;;;;;;4988764;28;92660;-71
2023/04/04 08:26:11;;;;;;;2.58;1.80;;;29.00;25.70;;;;;;4969363;28;92834;-71
2023/04/04 08:28:37;;;;;;;5.18;2.35;;;29.30;25.90;;;;;;4971078;28;92483;-72
2023/04/04 08:31:03;;;;;;;4.63;2.45;;;30.10;25.60;;;;;;4975580;28;92767;-72
2023/04/04 08:33:29;;;;;;;2.88;1.98;;;30.30;25.00;;;;;;4987340;28;95915;-72
2023/04/04 08:35:57;;;;;;;3.90;3.00;;;31.00;24.70;;;;;;4987047;28;94825;-72
2023/04/04 08:38:23;;;;;;;5.03;2.78;;;31.10;24.30;;;;;;4966507;28;92959;-72
2023/04/04 08:40:49;;;;;;;3.47;2.58;;;31.40;23.90;;;;;;4973531;28;92572;-72
2023/04/04 08:43:16;;;;;;;4.25;2.67;;;31.00;25.20;;;;;;4972273;28;93860;-73
2023/04/04 08:45:44;;;;;;;3.58;2.10;;;31.70;25.30;;;;;;4968643;28;94393;-72
2023/04/04 08:48:15;;;;;;;2.78;2.45;;;31.40;24.20;;;;;;4969927;28;92930;-72
2023/04/04 08:50:44;;;;;;;3.67;2.38;;;31.70;23.80;;;;;;4964414;28;91485;-72
2023/04/04 08:53:10;;;;;;;3.95;2.72;;;31.90;24.00;;;;;;4969008;28;93136;-72
2023/04/04 08:55:38;;;;;;;6.55;4.20;;;31.70;24.60;;;;;;4965891;28;93182;-72
2023/04/04 08:58:04;;;;;;;3.83;2.10;;;32.00;24.80;;;;;;4974280;28;93516;-72
2023/04/04 09:00:30;;;;;;;3.08;1.88;;;32.20;23.80;;;;;;4971906;28;94179;-72
2023/04/04 09:03:26;;;;;;;3.55;2.47;;;32.90;25.20;;;;;;4969725;28;94146;-72
2023/04/04 09:05:55;;;;;;;3.17;2.50;;;32.30;23.40;;;;;;4960236;28;92663;-72
2023/04/04 09:08:23;;;;;;;2.83;2.03;;;32.90;25.50;;;;;;4975229;28;92515;-72
2023/04/04 09:10:50;;;;;;;3.78;2.50;;;32.90;24.80;;;;;;4973998;28;92393;-72
2023/04/04 09:13:16;;;;;;;4.57;2.72;;;33.60;24.20;;;;;;4961291;28;92944;-72
2023/04/04 09:15:46;;;;;;;3.35;2.97;;;34.20;23.20;;;;;;4961027;28;92967;-72
2023/04/04 09:18:12;;;;;;;4.68;3.90;;;34.00;23.30;;;;;;4973144;28;92804;-72
2023/04/04 09:20:42;;;;;;;3.45;2.38;;;33.00;24.10;;;;;;4964805;28;92387;-73
2023/04/04 09:23:11;;;;;;;4.00;2.53;;;33.60;23.50;;;;;;4967823;28;94647;-73
2023/04/04 09:25:37;;;;;;;;;;;33.50;24.20;;;;;;4971747;28;93453;-73
2023/04/04 09:28:04;;;;;;;4.88;3.25;;;33.80;24.70;;;;;;4958985;28;92785;-72
2023/04/04 09:30:32;;;;;;;4.45;2.63;;;34.10;23.60;;;;;;4971992;28;92385;-72
2023/04/04 09:33:04;;;;;;;4.53;3.42;;;33.20;23.30;;;;;;4967528;28;92749;-72
2023/04/04 09:35:40;;;;;;;3.58;2.72;;;33.30;24.30;;;;;;4968418;28;93616;-71
2023/04/04 09:38:06;;;;;;;4.93;2.50;;;34.10;23.90;;;;;;4973812;28;92225;-71
2023/04/04 09:40:36;;;;;;;4.47;2.90;;;32.30;23.50;;;;;;4970502;28;91757;-71
2023/04/04 09:43:05;;;;;;;3.47;2.70;;;31.20;24.20;;;;;;4962307;28;93572;-71
2023/04/04 09:45:34;;;;;;;3.85;2.88;;;31.50;23.40;;;;;;4967703;28;92443;-71
2023/04/04 09:48:01;;;;;;;4.38;2.47;;;32.40;23.10;;;;;;4959830;28;93578;-72
2023/04/04 09:50:29;;;;;;;3.95;2.00;;;32.20;23.40;;;;;;4967745;28;92612;-71
2023/04/04 09:52:59;;;;;;;4.20;3.05;;;30.80;23.60;;;;;;4973667;28;93168;-71
2023/04/04 09:55:37;;;;;;;3.42;2.28;;;31.00;24.90;;;;;;4971296;28;94261;-71
2023/04/04 09:58:12;;;;;;;3.72;2.63;;;32.00;24.20;;;;;;4965302;28;92662;-71
2023/04/04 10:00:44;;;;;;;3.70;2.78;;;32.20;24.20;;;;;;4965623;28;92280;-72
2023/04/04 10:03:12;;;;;;;3.08;2.22;;;32.50;23.30;;;;;;4970119;28;93428;-71
2023/04/04 10:05:38;;;;;;;5.18;2.42;;;31.30;23.50;;;;;;4972451;28;91886;-71
2023/04/04 10:08:30;;;;;;;4.68;2.00;;;29.40;24.80;;;;;;4961698;28;93396;-71
2023/04/04 10:10:57;;;;;;;3.30;1.23;;;26.50;25.30;;;;;;4964043;28;94805;-71
2023/04/04 10:13:24;;;;;;;5.25;1.58;;;24.70;27.00;;;;;;4960192;28;94569;-70
2023/04/04 10:15:55;;;;;;;4.13;1.83;;;23.40;27.20;;;;;;4966725;28;94636;-70
2023/04/04 10:18:26;;;;;;;4.38;1.88;;;22.10;29.30;;;;;;4962435;28;92636;-72
2023/04/04 10:20:53;;;;;;;3.75;1.70;;;20.80;32.50;;;;;;4985577;28;92697;-72
2023/04/04 10:23:22;;;;;;;2.97;1.58;;;19.70;31.90;;;;;;4967223;28;94196;-70
2023/04/04 10:25:51;;;;;;;3.97;1.73;;;19.90;31.40;;;;;;4970788;28;94911;-72
2023/04/04 10:28:19;;;;;;;4.03;1.08;;;19.30;33.60;;;;;;4970614;28;93289;-72
2023/04/04 10:30:48;;;;;;;3.50;1.02;;;19.00;32.50;;;;;;4977006;28;91435;-71
2023/04/04 10:33:31;;;;;;;2.83;1.27;;;18.20;32.80;;;;;;4968917;28;93912;-73
2023/04/04 10:36:02;;;;;;;4.40;1.55;;;18.00;33.70;;;;;;4969173;28;92941;-71
2023/04/04 10:38:31;;;;;;;4.28;1.10;;;17.70;34.50;;;;;;4971812;28;93468;-73
2023/04/04 10:41:01;;;;;;;2.67;0.93;;;17.60;34.40;;;;;;4966755;28;92955;-71
2023/04/04 10:43:31;;;;;;;7.80;2.38;;;17.20;34.70;;;;;;4964171;28;94026;-73
2023/04/04 10:46:05;;;;;;;6.90;2.47;;;16.50;35.50;;;;;;4976103;28;92756;-70
2023/04/04 10:48:32;;;;;;;8.80;2.38;;;15.90;35.10;;;;;;4973962;28;92887;-71
2023/04/04 10:50:58;;;;;;;6.95;2.17;;;15.30;38.00;;;;;;4992418;28;92595;-72
2023/04/04 10:53:25;;;;;;;13.32;3.28;;;15.20;39.00;;;;;;4984783;28;94535;-71
2023/04/04 10:55:52;;;;;;;5.80;1.85;;;15.40;42.80;;;;;;4976086;28;92473;-70
2023/04/04 10:58:18;;;;;;;6.28;1.65;;;15.70;40.50;;;;;;4975031;28;94830;-71
2023/04/04 11:00:55;;;;;;;12.98;3.67;;;15.60;38.10;;;;;;4971558;28;92353;-70
2023/04/04 11:03:21;;;;;;;8.40;1.85;;;15.30;41.60;;;;;;4967921;28;94151;-72
2023/04/04 11:05:50;;;;;;;8.85;2.65;;;15.60;40.50;;;;;;4976227;28;94026;-70
2023/04/04 11:08:18;;;;;;;7.50;2.20;;;15.40;39.80;;;;;;4976884;28;92575;-71
2023/04/04 11:10:48;;;;;;;4.13;1.25;;;15.10;37.80;;;;;;4979320;28;92308;-71
2023/04/04 11:13:26;;;;;;;8.65;2.45;;;15.10;40.60;;;;;;4976356;28;93179;-71
2023/04/04 11:16:03;;;;;;;6.88;1.65;;;14.90;40.60;;;;;;4968515;28;92833;-71
2023/04/04 11:18:41;;;;;;;6.15;1.70;;;14.60;40.40;;;;;;4966821;28;94506;-71
2023/04/04 11:21:07;;;;;;;8.15;1.98;;;14.10;42.30;;;;;;4967230;28;93374;-71
2023/04/04 11:23:48;;;;;;;3.40;0.82;;;13.90;41.70;;;;;;4972027;28;94436;-71
2023/04/04 11:26:32;;;;;;;3.70;0.63;;;13.50;37.50;;;;;;4976628;28;92472;-71
2023/04/04 11:29:00;;;;;;;2.38;0.65;;;13.50;40.50;;;;;;4974456;28;93423;-71
2023/04/04 11:31:39;;;;;;;4.57;1.42;;;13.80;39.60;;;;;;4977534;28;92793;-71
2023/04/04 11:34:10;;;;;;;1.75;0.50;;;14.00;38.60;;;;;;4977576;28;93115;-71
2023/04/04 11:36:35;;;;;;;4.18;0.98;;;14.20;37.10;;;;;;4975906;28;93051;-71
2023/04/04 11:39:14;;;;;;;3.70;0.80;;;14.00;38.70;;;;;;4972554;28;92713;-71
2023/04/04 11:42:06;;;;;;;7.60;1.60;;;13.60;38.40;;;;;;4963911;28;92621;-71
2023/04/04 11:44:39;;;;;;;1.95;0.40;;;13.30;40.10;;;;;;4964190;28;93249;-71
2023/04/04 11:47:04;;;;;;;4.15;0.70;;;13.00;36.00;;;;;;4968678;28;93100;-71
2023/04/04 11:49:34;;;;;;;5.18;0.38;;;13.20;39.00;;;;;;4966242;28;93528;-71
2023/04/04 11:52:11;;;;;;;4.97;1.25;;;13.40;39.80;;;;;;4965316;28;92366;-71
2023/04/04 11:54:38;;;;;;;3.67;0.50;;;13.30;40.50;;;;;;4958065;28;93686;-71
2023/04/04 11:57:10;;;;;;;2.28;0.73;;;12.90;39.60;;;;;;4967368;28;93793;-71
2023/04/04 11:59:39;;;;;;;2.40;0.50;;;13.10;39.90;;;;;;4964359;28;92782;-71
2023/04/04 12:02:06;;;;;;;4.10;0.82;;;13.10;37.30;;;;;;4972540;28;92964;-71
2023/04/04 12:04:33;;;;;;;2.53;0.45;;;13.00;38.40;;;;;;4963947;28;92796;-71
2023/04/04 12:07:00;;;;;;;4.82;0.73;;;12.90;38.80;;;;;;4961875;28;92934;-71
2023/04/04 12:09:27;;;;;;;3.22;0.93;;;12.80;39.10;;;;;;4967519;28;92579;-70
2023/04/04 12:11:54;;;;;;;3.28;0.40;;;12.80;39.90;;;;;;4968669;28;91485;-70
2023/04/04 12:14:22;;;;;;;3.53;0.52;;;12.60;38.90;;;;;;4964674;28;93025;-72
2023/04/04 12:16:50;;;;;;;6.00;0.80;;;12.60;39.10;;;;;;4972001;28;92888;-71
2023/04/04 12:19:17;;;;;;;2.00;0.50;;;12.30;40.20;;;;;;4965719;28;93679;-71
2023/04/04 12:21:43;;;;;;;2.58;0.50;;;11.90;38.90;;;;;;4974125;28;92507;-71
2023/04/04 12:24:09;;;;;;;2.33;0.50;;;11.90;40.10;;;;;;4973691;28;93257;-70
2023/04/04 12:26:40;;;;;;;2.17;0.60;;;11.80;38.90;;;;;;4969457;28;92243;-72
2023/04/04 12:29:08;;;;;;;4.43;0.60;;;11.80;38.10;;;;;;4977812;28;92505;-71
2023/04/04 12:31:36;;;;;;;3.42;0.70;;;11.80;40.00;;;;;;4990309;28;92820;-72
2023/04/04 12:34:02;;;;;;;5.10;0.43;;;11.90;41.00;;;;;;4973244;28;93282;-72
2023/04/04 12:36:32;;;;;;;2.40;0.60;;;11.70;40.20;;;;;;4974182;28;92848;-72
2023/04/04 12:39:04;;;;;;;2.17;0.52;;;11.50;39.30;;;;;;4977490;28;93147;-72
2023/04/04 12:41:32;;;;;;;3.45;0.80;;;11.30;39.40;;;;;;4993732;28;92307;-70
2023/04/04 12:44:01;;;;;;;2.65;0.65;;;11.20;42.30;;;;;;4973059;28;94577;-71
2023/04/04 12:46:33;;;;;;;1.88;0.43;;;11.20;39.20;;;;;;4973273;28;93731;-71
2023/04/04 12:48:59;;;;;;;1.70;0.40;;;11.40;42.30;;;;;;4977230;28;92081;-70
2023/04/04 12:51:34;;;;;;;3.25;0.90;;;11.30;40.10;;;;;;4984878;28;92558;-72